sensor_id;sensor_type;location;lat;lon;timestamp;P1;durP1;ratioP1;P2;durP2;ratioP2
49416;SDS011;35290;39.550;8.786;2022-08-25T00:01:18;7.63;;;3.55;;
49416;SDS011;35290;39.550;8.786;2022-08-25T00:03:47;6.65;;;3.13;;
49416;SDS011;35290;39.550;8.786;2022-08-25T00:06:12;6.40;;;2.72;;
49416;SDS011;35290;39.550;8.786;2022-08-25T00:08:39;7.80;;;2.83;;
49416;SDS011;35290;39.550;8.786;2022-08-25T00:11:09;6.82;;;2.95;;
49416;SDS011;35290;39.550;8.786;2022-08-25T00:13:39;8.25;;;2.35;;
49416;SDS011;35290;39.550;8.786;2022-08-25T00:16:08;7.30;;;2.45;;
49416;SDS011;35290;39.550;8.786;2022-08-25T00:18:35;2.75;;;1.70;;
49416;SDS011;35290;39.550;8.786;2022-08-25T00:21:02;5.55;;;2.28;;
49416;SDS011;35290;39.550;8.786;2022-08-25T00:23:29;6.03;;;2.00;;
49416;SDS011;35290;39.550;8.786;2022-08-25T00:25:54;8.90;;;2.40;;
49416;SDS011;35290;39.550;8.786;2022-08-25T00:28:20;6.03;;;2.05;;
49416;SDS011;35290;39.550;8.786;2022-08-25T00:30:45;9.30;;;2.08;;
49416;SDS011;35290;39.550;8.786;2022-08-25T00:33:11;6.18;;;2.17;;
49416;SDS011;35290;39.550;8.786;2022-08-25T00:35:37;5.78;;;2.00;;
49416;SDS011;35290;39.550;8.786;2022-08-25T00:38:04;7.90;;;2.10;;
49416;SDS011;35290;39.550;8.786;2022-08-25T00:40:30;11.85;;;2.72;;
49416;SDS011;35290;39.550;8.786;2022-08-25T00:42:55;6.43;;;2.63;;
49416;SDS011;35290;39.550;8.786;2022-08-25T00:45:21;9.05;;;2.80;;
49416;SDS011;35290;39.550;8.786;2022-08-25T00:47:47;9.30;;;2.88;;
49416;SDS011;35290;39.550;8.786;2022-08-25T00:50:13;6.50;;;2.55;;
49416;SDS011;35290;39.550;8.786;2022-08-25T00:52:41;8.38;;;2.78;;
49416;SDS011;35290;39.550;8.786;2022-08-25T00:58:07;7.85;;;2.53;;
49416;SDS011;35290;39.550;8.786;2022-08-25T01:00:43;8.50;;;2.40;;
49416;SDS011;35290;39.550;8.786;2022-08-25T01:03:10;6.45;;;2.65;;
49416;SDS011;35290;39.550;8.786;2022-08-25T01:05:37;11.65;;;2.40;;
49416;SDS011;35290;39.550;8.786;2022-08-25T01:08:04;7.00;;;2.63;;
49416;SDS011;35290;39.550;8.786;2022-08-25T01:10:32;7.60;;;2.63;;
49416;SDS011;35290;39.550;8.786;2022-08-25T01:13:04;11.20;;;2.50;;
49416;SDS011;35290;39.550;8.786;2022-08-25T01:15:33;4.95;;;2.28;;
49416;SDS011;35290;39.550;8.786;2022-08-25T01:17:59;5.72;;;2.60;;
49416;SDS011;35290;39.550;8.786;2022-08-25T01:20:26;5.70;;;2.38;;
49416;SDS011;35290;39.550;8.786;2022-08-25T01:22:53;8.07;;;2.28;;
49416;SDS011;35290;39.550;8.786;2022-08-25T01:28:35;9.75;;;2.40;;
49416;SDS011;35290;39.550;8.786;2022-08-25T01:31:01;9.95;;;2.45;;
49416;SDS011;35290;39.550;8.786;2022-08-25T01:33:27;8.18;;;2.30;;
49416;SDS011;35290;39.550;8.786;2022-08-25T01:35:53;6.43;;;2.10;;
49416;SDS011;35290;39.550;8.786;2022-08-25T01:38:19;8.00;;;3.03;;
49416;SDS011;35290;39.550;8.786;2022-08-25T01:40:45;9.48;;;2.45;;
49416;SDS011;35290;39.550;8.786;2022-08-25T01:45:40;7.35;;;2.60;;
49416;SDS011;35290;39.550;8.786;2022-08-25T01:48:08;6.93;;;2.30;;
49416;SDS011;35290;39.550;8.786;2022-08-25T01:50:34;6.47;;;2.17;;
49416;SDS011;35290;39.550;8.786;2022-08-25T01:55:48;8.35;;;2.20;;
49416;SDS011;35290;39.550;8.786;2022-08-25T01:58:17;6.90;;;2.53;;
49416;SDS011;35290;39.550;8.786;2022-08-25T02:00:45;6.45;;;2.10;;
49416;SDS011;35290;39.550;8.786;2022-08-25T02:03:14;8.32;;;2.40;;
49416;SDS011;35290;39.550;8.786;2022-08-25T02:05:40;8.57;;;1.85;;
49416;SDS011;35290;39.550;8.786;2022-08-25T02:08:06;9.43;;;2.30;;
49416;SDS011;35290;39.550;8.786;2022-08-25T02:10:32;6.88;;;2.00;;
49416;SDS011;35290;39.550;8.786;2022-08-25T02:12:57;7.70;;;1.70;;
49416;SDS011;35290;39.550;8.786;2022-08-25T02:15:23;7.75;;;2.03;;
49416;SDS011;35290;39.550;8.786;2022-08-25T02:17:49;10.40;;;1.80;;
49416;SDS011;35290;39.550;8.786;2022-08-25T02:20:14;8.35;;;1.63;;
49416;SDS011;35290;39.550;8.786;2022-08-25T02:22:40;7.38;;;1.60;;
49416;SDS011;35290;39.550;8.786;2022-08-25T02:25:06;4.65;;;1.65;;
49416;SDS011;35290;39.550;8.786;2022-08-25T02:27:32;5.45;;;1.70;;
49416;SDS011;35290;39.550;8.786;2022-08-25T02:30:00;5.18;;;1.70;;
49416;SDS011;35290;39.550;8.786;2022-08-25T02:32:28;6.18;;;1.45;;
49416;SDS011;35290;39.550;8.786;2022-08-25T02:34:54;8.70;;;1.30;;
49416;SDS011;35290;39.550;8.786;2022-08-25T02:37:19;4.07;;;1.40;;
49416;SDS011;35290;39.550;8.786;2022-08-25T02:39:45;4.38;;;1.50;;
49416;SDS011;35290;39.550;8.786;2022-08-25T02:42:11;6.93;;;1.50;;
49416;SDS011;35290;39.550;8.786;2022-08-25T02:44:36;3.72;;;1.25;;
49416;SDS011;35290;39.550;8.786;2022-08-25T02:47:02;5.03;;;1.42;;
49416;SDS011;35290;39.550;8.786;2022-08-25T02:49:28;1.83;;;1.20;;
49416;SDS011;35290;39.550;8.786;2022-08-25T02:51:54;4.05;;;1.30;;
49416;SDS011;35290;39.550;8.786;2022-08-25T02:54:20;3.85;;;1.40;;
49416;SDS011;35290;39.550;8.786;2022-08-25T02:56:47;4.28;;;1.60;;
49416;SDS011;35290;39.550;8.786;2022-08-25T02:59:13;4.78;;;1.42;;
49416;SDS011;35290;39.550;8.786;2022-08-25T03:01:39;3.33;;;1.38;;
49416;SDS011;35290;39.550;8.786;2022-08-25T03:04:04;3.33;;;1.60;;
49416;SDS011;35290;39.550;8.786;2022-08-25T03:06:31;4.15;;;1.60;;
49416;SDS011;35290;39.550;8.786;2022-08-25T03:08:57;3.38;;;1.65;;
49416;SDS011;35290;39.550;8.786;2022-08-25T03:11:23;5.47;;;1.60;;
49416;SDS011;35290;39.550;8.786;2022-08-25T03:13:50;4.22;;;1.50;;
49416;SDS011;35290;39.550;8.786;2022-08-25T03:16:16;6.90;;;1.80;;
49416;SDS011;35290;39.550;8.786;2022-08-25T03:18:42;5.50;;;1.70;;
49416;SDS011;35290;39.550;8.786;2022-08-25T03:21:08;4.95;;;1.50;;
49416;SDS011;35290;39.550;8.786;2022-08-25T03:23:35;3.58;;;1.75;;
49416;SDS011;35290;39.550;8.786;2022-08-25T03:26:01;4.32;;;1.83;;
49416;SDS011;35290;39.550;8.786;2022-08-25T03:28:45;2.22;;;1.40;;
49416;SDS011;35290;39.550;8.786;2022-08-25T03:31:10;4.20;;;1.60;;
49416;SDS011;35290;39.550;8.786;2022-08-25T03:33:36;6.50;;;1.73;;
49416;SDS011;35290;39.550;8.786;2022-08-25T03:36:02;3.75;;;1.73;;
49416;SDS011;35290;39.550;8.786;2022-08-25T03:38:29;5.45;;;1.70;;
49416;SDS011;35290;39.550;8.786;2022-08-25T03:40:54;5.07;;;1.70;;
49416;SDS011;35290;39.550;8.786;2022-08-25T03:43:20;4.40;;;1.23;;
49416;SDS011;35290;39.550;8.786;2022-08-25T03:45:46;3.60;;;1.58;;
49416;SDS011;35290;39.550;8.786;2022-08-25T03:48:12;6.00;;;1.70;;
49416;SDS011;35290;39.550;8.786;2022-08-25T03:50:42;5.07;;;1.77;;
49416;SDS011;35290;39.550;8.786;2022-08-25T03:53:12;3.25;;;1.45;;
49416;SDS011;35290;39.550;8.786;2022-08-25T03:55:37;2.20;;;1.33;;
49416;SDS011;35290;39.550;8.786;2022-08-25T03:58:04;4.25;;;1.52;;
49416;SDS011;35290;39.550;8.786;2022-08-25T04:00:30;5.00;;;1.60;;
49416;SDS011;35290;39.550;8.786;2022-08-25T04:02:55;3.45;;;1.73;;
49416;SDS011;35290;39.550;8.786;2022-08-25T04:05:21;2.55;;;1.80;;
49416;SDS011;35290;39.550;8.786;2022-08-25T04:07:46;4.00;;;1.65;;
49416;SDS011;35290;39.550;8.786;2022-08-25T04:10:12;4.00;;;1.77;;
49416;SDS011;35290;39.550;8.786;2022-08-25T04:12:38;4.78;;;1.83;;
49416;SDS011;35290;39.550;8.786;2022-08-25T04:15:04;4.32;;;1.60;;
49416;SDS011;35290;39.550;8.786;2022-08-25T04:17:30;2.65;;;1.65;;
49416;SDS011;35290;39.550;8.786;2022-08-25T04:19:56;5.60;;;1.70;;
49416;SDS011;35290;39.550;8.786;2022-08-25T04:22:21;4.60;;;1.70;;
49416;SDS011;35290;39.550;8.786;2022-08-25T04:24:47;8.27;;;1.98;;
49416;SDS011;35290;39.550;8.786;2022-08-25T04:27:12;4.80;;;1.80;;
49416;SDS011;35290;39.550;8.786;2022-08-25T04:29:38;5.72;;;1.67;;
49416;SDS011;35290;39.550;8.786;2022-08-25T04:32:03;6.72;;;1.48;;
49416;SDS011;35290;39.550;8.786;2022-08-25T04:34:29;5.07;;;1.70;;
49416;SDS011;35290;39.550;8.786;2022-08-25T04:36:55;12.43;;;1.98;;
49416;SDS011;35290;39.550;8.786;2022-08-25T04:39:21;5.07;;;1.67;;
49416;SDS011;35290;39.550;8.786;2022-08-25T04:41:47;7.93;;;1.90;;
49416;SDS011;35290;39.550;8.786;2022-08-25T04:44:13;4.35;;;1.75;;
49416;SDS011;35290;39.550;8.786;2022-08-25T04:46:44;5.85;;;1.83;;
49416;SDS011;35290;39.550;8.786;2022-08-25T04:49:10;6.75;;;2.20;;
49416;SDS011;35290;39.550;8.786;2022-08-25T04:51:37;5.13;;;1.90;;
49416;SDS011;35290;39.550;8.786;2022-08-25T04:54:06;6.57;;;1.80;;
49416;SDS011;35290;39.550;8.786;2022-08-25T04:56:34;5.45;;;1.77;;
49416;SDS011;35290;39.550;8.786;2022-08-25T04:59:01;7.28;;;1.98;;
49416;SDS011;35290;39.550;8.786;2022-08-25T05:01:30;6.15;;;1.77;;
49416;SDS011;35290;39.550;8.786;2022-08-25T05:04:00;5.25;;;1.80;;
49416;SDS011;35290;39.550;8.786;2022-08-25T05:06:27;4.80;;;1.40;;
49416;SDS011;35290;39.550;8.786;2022-08-25T05:08:53;8.88;;;1.80;;
49416;SDS011;35290;39.550;8.786;2022-08-25T05:11:20;9.05;;;2.00;;
49416;SDS011;35290;39.550;8.786;2022-08-25T05:13:46;5.72;;;1.50;;
49416;SDS011;35290;39.550;8.786;2022-08-25T05:16:13;6.10;;;1.90;;
49416;SDS011;35290;39.550;8.786;2022-08-25T05:18:39;5.65;;;1.60;;
49416;SDS011;35290;39.550;8.786;2022-08-25T05:21:06;7.60;;;1.70;;
49416;SDS011;35290;39.550;8.786;2022-08-25T05:23:37;5.47;;;1.70;;
49416;SDS011;35290;39.550;8.786;2022-08-25T05:26:05;7.28;;;1.80;;
49416;SDS011;35290;39.550;8.786;2022-08-25T05:28:32;5.13;;;1.85;;
49416;SDS011;35290;39.550;8.786;2022-08-25T05:30:59;6.53;;;1.83;;
49416;SDS011;35290;39.550;8.786;2022-08-25T05:33:25;3.67;;;1.45;;
49416;SDS011;35290;39.550;8.786;2022-08-25T05:35:52;6.22;;;2.40;;
49416;SDS011;35290;39.550;8.786;2022-08-25T05:38:17;6.30;;;1.60;;
49416;SDS011;35290;39.550;8.786;2022-08-25T05:40:43;5.38;;;2.20;;
49416;SDS011;35290;39.550;8.786;2022-08-25T05:43:09;5.10;;;2.10;;
49416;SDS011;35290;39.550;8.786;2022-08-25T05:45:35;5.85;;;1.88;;
49416;SDS011;35290;39.550;8.786;2022-08-25T05:48:00;4.72;;;2.40;;
49416;SDS011;35290;39.550;8.786;2022-08-25T05:50:26;7.38;;;2.00;;
49416;SDS011;35290;39.550;8.786;2022-08-25T05:52:52;5.95;;;2.13;;
49416;SDS011;35290;39.550;8.786;2022-08-25T05:55:18;7.47;;;1.73;;
49416;SDS011;35290;39.550;8.786;2022-08-25T05:57:43;4.32;;;1.73;;
49416;SDS011;35290;39.550;8.786;2022-08-25T06:00:09;6.55;;;1.70;;
49416;SDS011;35290;39.550;8.786;2022-08-25T06:02:36;6.55;;;1.55;;
49416;SDS011;35290;39.550;8.786;2022-08-25T06:05:11;6.72;;;1.58;;
49416;SDS011;35290;39.550;8.786;2022-08-25T06:07:39;16.20;;;2.08;;
49416;SDS011;35290;39.550;8.786;2022-08-25T06:10:05;12.48;;;1.80;;
49416;SDS011;35290;39.550;8.786;2022-08-25T06:12:32;8.18;;;1.58;;
49416;SDS011;35290;39.550;8.786;2022-08-25T06:15:00;12.90;;;1.77;;
49416;SDS011;35290;39.550;8.786;2022-08-25T06:17:26;10.02;;;1.70;;
49416;SDS011;35290;39.550;8.786;2022-08-25T06:19:52;10.60;;;1.70;;
49416;SDS011;35290;39.550;8.786;2022-08-25T06:22:18;11.48;;;2.00;;
49416;SDS011;35290;39.550;8.786;2022-08-25T06:24:44;10.65;;;2.10;;
49416;SDS011;35290;39.550;8.786;2022-08-25T06:27:10;7.57;;;1.90;;
49416;SDS011;35290;39.550;8.786;2022-08-25T06:29:36;10.07;;;1.85;;
49416;SDS011;35290;39.550;8.786;2022-08-25T06:32:01;12.70;;;1.90;;
49416;SDS011;35290;39.550;8.786;2022-08-25T06:34:27;11.02;;;2.00;;
49416;SDS011;35290;39.550;8.786;2022-08-25T06:36:53;9.18;;;1.70;;
49416;SDS011;35290;39.550;8.786;2022-08-25T06:39:19;11.05;;;1.70;;
49416;SDS011;35290;39.550;8.786;2022-08-25T06:41:49;5.07;;;1.73;;
49416;SDS011;35290;39.550;8.786;2022-08-25T06:44:15;4.55;;;1.60;;
49416;SDS011;35290;39.550;8.786;2022-08-25T06:46:40;4.57;;;1.55;;
49416;SDS011;35290;39.550;8.786;2022-08-25T06:49:06;6.63;;;1.58;;
49416;SDS011;35290;39.550;8.786;2022-08-25T06:51:32;4.68;;;1.35;;
49416;SDS011;35290;39.550;8.786;2022-08-25T06:54:00;13.88;;;1.50;;
49416;SDS011;35290;39.550;8.786;2022-08-25T06:56:26;6.72;;;1.88;;
49416;SDS011;35290;39.550;8.786;2022-08-25T06:58:51;5.43;;;1.73;;
49416;SDS011;35290;39.550;8.786;2022-08-25T07:01:18;5.97;;;1.48;;
49416;SDS011;35290;39.550;8.786;2022-08-25T07:03:47;10.60;;;2.40;;
49416;SDS011;35290;39.550;8.786;2022-08-25T07:06:14;3.38;;;1.30;;
49416;SDS011;35290;39.550;8.786;2022-08-25T07:08:40;7.72;;;1.50;;
49416;SDS011;35290;39.550;8.786;2022-08-25T07:11:10;7.22;;;1.67;;
49416;SDS011;35290;39.550;8.786;2022-08-25T07:13:36;8.32;;;2.20;;
49416;SDS011;35290;39.550;8.786;2022-08-25T07:16:02;9.73;;;2.00;;
49416;SDS011;35290;39.550;8.786;2022-08-25T07:18:31;6.07;;;1.77;;
49416;SDS011;35290;39.550;8.786;2022-08-25T07:20:57;7.03;;;1.42;;
49416;SDS011;35290;39.550;8.786;2022-08-25T07:23:23;13.77;;;2.20;;
49416;SDS011;35290;39.550;8.786;2022-08-25T07:25:49;12.73;;;2.33;;
49416;SDS011;35290;39.550;8.786;2022-08-25T07:28:17;5.85;;;1.50;;
49416;SDS011;35290;39.550;8.786;2022-08-25T07:30:43;4.75;;;1.80;;
49416;SDS011;35290;39.550;8.786;2022-08-25T07:33:08;6.05;;;1.92;;
49416;SDS011;35290;39.550;8.786;2022-08-25T07:35:34;7.05;;;2.03;;
49416;SDS011;35290;39.550;8.786;2022-08-25T07:38:01;7.85;;;2.20;;
49416;SDS011;35290;39.550;8.786;2022-08-25T07:40:30;6.88;;;1.73;;
49416;SDS011;35290;39.550;8.786;2022-08-25T07:42:58;7.68;;;2.10;;
49416;SDS011;35290;39.550;8.786;2022-08-25T07:45:26;8.25;;;1.90;;
49416;SDS011;35290;39.550;8.786;2022-08-25T07:48:00;3.45;;;2.00;;
49416;SDS011;35290;39.550;8.786;2022-08-25T07:50:27;4.43;;;2.00;;
49416;SDS011;35290;39.550;8.786;2022-08-25T07:52:54;7.55;;;1.98;;
49416;SDS011;35290;39.550;8.786;2022-08-25T07:55:20;5.30;;;1.83;;
49416;SDS011;35290;39.550;8.786;2022-08-25T07:57:46;7.53;;;3.22;;
49416;SDS011;35290;39.550;8.786;2022-08-25T08:00:13;3.95;;;1.50;;
49416;SDS011;35290;39.550;8.786;2022-08-25T08:02:39;4.97;;;1.80;;
49416;SDS011;35290;39.550;8.786;2022-08-25T08:05:05;9.35;;;1.80;;
49416;SDS011;35290;39.550;8.786;2022-08-25T08:07:32;5.15;;;1.90;;
49416;SDS011;35290;39.550;8.786;2022-08-25T08:09:57;7.03;;;1.98;;
49416;SDS011;35290;39.550;8.786;2022-08-25T08:12:23;8.20;;;1.73;;
49416;SDS011;35290;39.550;8.786;2022-08-25T08:14:49;9.70;;;2.17;;
49416;SDS011;35290;39.550;8.786;2022-08-25T08:17:16;6.90;;;2.10;;
49416;SDS011;35290;39.550;8.786;2022-08-25T08:19:42;6.82;;;1.70;;
49416;SDS011;35290;39.550;8.786;2022-08-25T08:22:08;6.40;;;2.10;;
49416;SDS011;35290;39.550;8.786;2022-08-25T08:24:35;10.48;;;2.00;;
49416;SDS011;35290;39.550;8.786;2022-08-25T08:27:07;6.22;;;1.60;;
49416;SDS011;35290;39.550;8.786;2022-08-25T08:29:33;4.07;;;1.35;;
49416;SDS011;35290;39.550;8.786;2022-08-25T08:31:59;5.25;;;1.38;;
49416;SDS011;35290;39.550;8.786;2022-08-25T08:34:25;5.13;;;1.73;;
49416;SDS011;35290;39.550;8.786;2022-08-25T08:36:50;3.92;;;1.25;;
49416;SDS011;35290;39.550;8.786;2022-08-25T08:39:16;4.78;;;1.20;;
49416;SDS011;35290;39.550;8.786;2022-08-25T08:41:48;3.35;;;1.30;;
49416;SDS011;35290;39.550;8.786;2022-08-25T08:52:43;12.95;;;2.40;;
49416;SDS011;35290;39.550;8.786;2022-08-25T08:57:57;2.88;;;1.13;;
49416;SDS011;35290;39.550;8.786;2022-08-25T09:00:24;5.97;;;1.40;;
49416;SDS011;35290;39.550;8.786;2022-08-25T09:02:56;3.42;;;1.33;;
49416;SDS011;35290;39.550;8.786;2022-08-25T09:05:27;5.72;;;1.52;;
49416;SDS011;35290;39.550;8.786;2022-08-25T09:07:57;6.18;;;1.30;;
49416;SDS011;35290;39.550;8.786;2022-08-25T09:10:25;3.83;;;1.13;;
49416;SDS011;35290;39.550;8.786;2022-08-25T09:13:07;3.80;;;1.20;;
49416;SDS011;35290;39.550;8.786;2022-08-25T09:16:02;3.03;;;1.30;;
49416;SDS011;35290;39.550;8.786;2022-08-25T09:29:20;5.15;;;1.55;;
49416;SDS011;35290;39.550;8.786;2022-08-25T09:31:47;4.75;;;1.08;;
49416;SDS011;35290;39.550;8.786;2022-08-25T09:34:17;6.72;;;1.13;;
49416;SDS011;35290;39.550;8.786;2022-08-25T09:36:47;5.28;;;1.35;;
49416;SDS011;35290;39.550;8.786;2022-08-25T09:39:17;3.97;;;1.30;;
49416;SDS011;35290;39.550;8.786;2022-08-25T09:44:29;3.85;;;1.10;;
49416;SDS011;35290;39.550;8.786;2022-08-25T09:47:01;12.35;;;1.48;;
49416;SDS011;35290;39.550;8.786;2022-08-25T09:49:42;4.75;;;1.25;;
49416;SDS011;35290;39.550;8.786;2022-08-25T10:02:39;3.53;;;1.00;;
49416;SDS011;35290;39.550;8.786;2022-08-25T10:05:20;3.05;;;1.13;;
49416;SDS011;35290;39.550;8.786;2022-08-25T10:07:51;3.13;;;1.10;;
49416;SDS011;35290;39.550;8.786;2022-08-25T10:10:32;1.60;;;0.80;;
49416;SDS011;35290;39.550;8.786;2022-08-25T10:12:59;1.88;;;1.00;;
49416;SDS011;35290;39.550;8.786;2022-08-25T10:15:35;2.72;;;1.00;;
49416;SDS011;35290;39.550;8.786;2022-08-25T10:18:21;3.00;;;0.85;;
49416;SDS011;35290;39.550;8.786;2022-08-25T10:23:48;5.18;;;1.10;;
49416;SDS011;35290;39.550;8.786;2022-08-25T10:29:01;2.72;;;1.05;;
49416;SDS011;35290;39.550;8.786;2022-08-25T10:34:42;3.10;;;1.20;;
49416;SDS011;35290;39.550;8.786;2022-08-25T10:37:22;3.58;;;1.23;;
49416;SDS011;35290;39.550;8.786;2022-08-25T10:43:08;6.25;;;1.40;;
49416;SDS011;35290;39.550;8.786;2022-08-25T10:45:41;4.03;;;1.40;;
49416;SDS011;35290;39.550;8.786;2022-08-25T10:51:09;6.03;;;1.30;;
49416;SDS011;35290;39.550;8.786;2022-08-25T10:56:33;5.18;;;1.25;;
49416;SDS011;35290;39.550;8.786;2022-08-25T11:02:11;9.15;;;1.95;;
49416;SDS011;35290;39.550;8.786;2022-08-25T11:05:04;4.28;;;1.35;;
49416;SDS011;35290;39.550;8.786;2022-08-25T11:07:44;2.85;;;0.80;;
49416;SDS011;35290;39.550;8.786;2022-08-25T11:10:16;1.77;;;0.82;;
49416;SDS011;35290;39.550;8.786;2022-08-25T11:12:45;2.25;;;0.82;;
49416;SDS011;35290;39.550;8.786;2022-08-25T11:17:54;3.63;;;1.17;;
49416;SDS011;35290;39.550;8.786;2022-08-25T11:20:33;2.90;;;1.00;;
49416;SDS011;35290;39.550;8.786;2022-08-25T11:25:53;4.03;;;1.15;;
49416;SDS011;35290;39.550;8.786;2022-08-25T11:31:12;1.50;;;1.00;;
49416;SDS011;35290;39.550;8.786;2022-08-25T11:33:38;3.00;;;0.90;;
49416;SDS011;35290;39.550;8.786;2022-08-25T11:36:05;4.68;;;0.90;;
49416;SDS011;35290;39.550;8.786;2022-08-25T11:41:40;3.30;;;1.00;;
49416;SDS011;35290;39.550;8.786;2022-08-25T11:44:23;1.80;;;0.80;;
49416;SDS011;35290;39.550;8.786;2022-08-25T11:49:51;3.28;;;0.80;;
49416;SDS011;35290;39.550;8.786;2022-08-25T11:57:39;3.57;;;0.80;;
49416;SDS011;35290;39.550;8.786;2022-08-25T12:23:34;1.17;;;0.63;;
49416;SDS011;35290;39.550;8.786;2022-08-25T12:26:11;2.50;;;0.70;;
49416;SDS011;35290;39.550;8.786;2022-08-25T12:34:07;1.88;;;0.90;;
49416;SDS011;35290;39.550;8.786;2022-08-25T12:36:59;1.77;;;0.70;;
49416;SDS011;35290;39.550;8.786;2022-08-25T12:39:32;3.20;;;0.80;;
49416;SDS011;35290;39.550;8.786;2022-08-25T12:42:01;2.63;;;0.88;;
49416;SDS011;35290;39.550;8.786;2022-08-25T12:49:52;4.32;;;0.90;;
49416;SDS011;35290;39.550;8.786;2022-08-25T12:52:38;3.75;;;0.68;;
49416;SDS011;35290;39.550;8.786;2022-08-25T12:55:04;3.85;;;0.68;;
49416;SDS011;35290;39.550;8.786;2022-08-25T12:57:37;1.80;;;0.70;;
49416;SDS011;35290;39.550;8.786;2022-08-25T13:03:06;2.40;;;0.63;;
49416;SDS011;35290;39.550;8.786;2022-08-25T13:16:34;2.78;;;0.60;;
49416;SDS011;35290;39.550;8.786;2022-08-25T13:19:03;1.92;;;0.82;;
49416;SDS011;35290;39.550;8.786;2022-08-25T13:24:06;2.22;;;0.77;;
49416;SDS011;35290;39.550;8.786;2022-08-25T13:26:42;2.30;;;0.77;;
49416;SDS011;35290;39.550;8.786;2022-08-25T13:31:35;1.33;;;0.77;;
49416;SDS011;35290;39.550;8.786;2022-08-25T13:34:06;1.50;;;1.05;;
49416;SDS011;35290;39.550;8.786;2022-08-25T13:36:35;3.50;;;1.00;;
49416;SDS011;35290;39.550;8.786;2022-08-25T13:39:31;1.80;;;0.90;;
49416;SDS011;35290;39.550;8.786;2022-08-25T13:41:58;2.17;;;0.75;;
49416;SDS011;35290;39.550;8.786;2022-08-25T13:44:26;3.88;;;0.77;;
49416;SDS011;35290;39.550;8.786;2022-08-25T13:49:31;5.32;;;1.20;;
49416;SDS011;35290;39.550;8.786;2022-08-25T13:51:56;2.05;;;0.80;;
49416;SDS011;35290;39.550;8.786;2022-08-25T13:54:26;2.40;;;0.70;;
49416;SDS011;35290;39.550;8.786;2022-08-25T13:57:13;4.80;;;1.00;;
49416;SDS011;35290;39.550;8.786;2022-08-25T13:59:42;3.55;;;0.90;;
49416;SDS011;35290;39.550;8.786;2022-08-25T14:02:10;1.50;;;0.68;;
49416;SDS011;35290;39.550;8.786;2022-08-25T14:09:50;2.10;;;0.70;;
49416;SDS011;35290;39.550;8.786;2022-08-25T14:12:32;0.85;;;0.75;;
49416;SDS011;35290;39.550;8.786;2022-08-25T14:18:01;1.95;;;0.70;;
49416;SDS011;35290;39.550;8.786;2022-08-25T14:20:29;3.70;;;0.70;;
49416;SDS011;35290;39.550;8.786;2022-08-25T14:22:56;4.00;;;0.80;;
49416;SDS011;35290;39.550;8.786;2022-08-25T14:25:24;2.03;;;0.73;;
49416;SDS011;35290;39.550;8.786;2022-08-25T14:27:58;4.60;;;0.90;;
49416;SDS011;35290;39.550;8.786;2022-08-25T14:30:29;2.30;;;1.00;;
49416;SDS011;35290;39.550;8.786;2022-08-25T14:32:56;2.53;;;0.88;;
49416;SDS011;35290;39.550;8.786;2022-08-25T14:35:22;2.53;;;0.88;;
49416;SDS011;35290;39.550;8.786;2022-08-25T14:37:48;2.72;;;0.85;;
49416;SDS011;35290;39.550;8.786;2022-08-25T14:40:14;5.70;;;0.80;;
49416;SDS011;35290;39.550;8.786;2022-08-25T14:42:43;3.17;;;0.75;;
49416;SDS011;35290;39.550;8.786;2022-08-25T14:45:16;4.05;;;1.10;;
49416;SDS011;35290;39.550;8.786;2022-08-25T14:47:42;1.92;;;0.80;;
49416;SDS011;35290;39.550;8.786;2022-08-25T14:50:10;5.18;;;0.90;;
49416;SDS011;35290;39.550;8.786;2022-08-25T14:52:36;1.88;;;0.82;;
49416;SDS011;35290;39.550;8.786;2022-08-25T14:55:02;1.63;;;0.70;;
49416;SDS011;35290;39.550;8.786;2022-08-25T14:57:31;2.70;;;0.82;;
49416;SDS011;35290;39.550;8.786;2022-08-25T14:59:56;5.03;;;0.90;;
49416;SDS011;35290;39.550;8.786;2022-08-25T15:02:22;4.07;;;1.05;;
49416;SDS011;35290;39.550;8.786;2022-08-25T15:04:49;2.80;;;0.93;;
49416;SDS011;35290;39.550;8.786;2022-08-25T15:07:17;2.80;;;0.90;;
49416;SDS011;35290;39.550;8.786;2022-08-25T15:10:01;1.98;;;0.85;;
49416;SDS011;35290;39.550;8.786;2022-08-25T15:12:26;1.95;;;0.77;;
49416;SDS011;35290;39.550;8.786;2022-08-25T15:14:52;2.88;;;0.90;;
49416;SDS011;35290;39.550;8.786;2022-08-25T15:17:17;8.48;;;1.00;;
49416;SDS011;35290;39.550;8.786;2022-08-25T15:19:43;3.45;;;1.58;;
49416;SDS011;35290;39.550;8.786;2022-08-25T15:22:12;1.95;;;0.80;;
49416;SDS011;35290;39.550;8.786;2022-08-25T15:24:40;2.60;;;0.80;;
49416;SDS011;35290;39.550;8.786;2022-08-25T15:27:06;2.70;;;0.88;;
49416;SDS011;35290;39.550;8.786;2022-08-25T15:29:33;2.83;;;0.80;;
49416;SDS011;35290;39.550;8.786;2022-08-25T15:31:59;1.70;;;0.80;;
49416;SDS011;35290;39.550;8.786;2022-08-25T15:34:27;1.85;;;0.90;;
49416;SDS011;35290;39.550;8.786;2022-08-25T15:36:54;6.68;;;1.00;;
49416;SDS011;35290;39.550;8.786;2022-08-25T15:39:20;2.65;;;1.00;;
49416;SDS011;35290;39.550;8.786;2022-08-25T15:41:46;2.53;;;1.00;;
49416;SDS011;35290;39.550;8.786;2022-08-25T15:44:18;4.50;;;1.00;;
49416;SDS011;35290;39.550;8.786;2022-08-25T15:46:44;3.85;;;0.88;;
49416;SDS011;35290;39.550;8.786;2022-08-25T15:49:10;2.55;;;0.80;;
49416;SDS011;35290;39.550;8.786;2022-08-25T15:51:36;2.40;;;0.90;;
49416;SDS011;35290;39.550;8.786;2022-08-25T15:54:02;3.45;;;1.00;;
49416;SDS011;35290;39.550;8.786;2022-08-25T15:56:28;4.95;;;1.10;;
49416;SDS011;35290;39.550;8.786;2022-08-25T15:58:55;1.77;;;0.90;;
49416;SDS011;35290;39.550;8.786;2022-08-25T16:01:22;3.40;;;0.90;;
49416;SDS011;35290;39.550;8.786;2022-08-25T16:03:49;4.18;;;0.90;;
49416;SDS011;35290;39.550;8.786;2022-08-25T16:06:14;4.32;;;1.13;;
49416;SDS011;35290;39.550;8.786;2022-08-25T16:08:41;3.78;;;1.30;;
49416;SDS011;35290;39.550;8.786;2022-08-25T16:11:15;2.03;;;0.90;;
49416;SDS011;35290;39.550;8.786;2022-08-25T16:13:45;2.47;;;1.00;;
49416;SDS011;35290;39.550;8.786;2022-08-25T16:16:12;6.13;;;1.20;;
49416;SDS011;35290;39.550;8.786;2022-08-25T16:18:39;4.00;;;0.95;;
49416;SDS011;35290;39.550;8.786;2022-08-25T16:21:12;4.97;;;1.08;;
49416;SDS011;35290;39.550;8.786;2022-08-25T16:23:39;2.13;;;0.90;;
49416;SDS011;35290;39.550;8.786;2022-08-25T16:26:10;5.50;;;1.10;;
49416;SDS011;35290;39.550;8.786;2022-08-25T16:28:37;5.75;;;0.95;;
49416;SDS011;35290;39.550;8.786;2022-08-25T16:31:03;2.92;;;0.90;;
49416;SDS011;35290;39.550;8.786;2022-08-25T16:33:29;2.75;;;0.95;;
49416;SDS011;35290;39.550;8.786;2022-08-25T16:36:09;2.78;;;0.90;;
49416;SDS011;35290;39.550;8.786;2022-08-25T16:38:38;2.58;;;1.23;;
49416;SDS011;35290;39.550;8.786;2022-08-25T16:41:05;1.92;;;0.80;;
49416;SDS011;35290;39.550;8.786;2022-08-25T16:43:31;5.53;;;1.00;;
49416;SDS011;35290;39.550;8.786;2022-08-25T16:46:01;4.57;;;0.90;;
49416;SDS011;35290;39.550;8.786;2022-08-25T16:48:28;4.05;;;1.10;;
49416;SDS011;35290;39.550;8.786;2022-08-25T16:50:54;4.60;;;1.10;;
49416;SDS011;35290;39.550;8.786;2022-08-25T16:53:20;5.88;;;1.00;;
49416;SDS011;35290;39.550;8.786;2022-08-25T16:56:04;3.03;;;1.00;;
49416;SDS011;35290;39.550;8.786;2022-08-25T16:58:30;2.88;;;0.95;;
49416;SDS011;35290;39.550;8.786;2022-08-25T17:01:06;2.22;;;0.90;;
49416;SDS011;35290;39.550;8.786;2022-08-25T17:03:33;2.83;;;0.90;;
49416;SDS011;35290;39.550;8.786;2022-08-25T17:06:00;4.07;;;1.20;;
49416;SDS011;35290;39.550;8.786;2022-08-25T17:08:25;4.57;;;0.90;;
49416;SDS011;35290;39.550;8.786;2022-08-25T17:13:36;2.07;;;0.83;;
49416;SDS011;35290;39.550;8.786;2022-08-25T17:16:08;3.53;;;1.00;;
49416;SDS011;35290;39.550;8.786;2022-08-25T17:18:34;2.15;;;1.00;;
49416;SDS011;35290;39.550;8.786;2022-08-25T17:21:01;4.47;;;0.90;;
49416;SDS011;35290;39.550;8.786;2022-08-25T17:23:28;1.42;;;0.90;;
49416;SDS011;35290;39.550;8.786;2022-08-25T17:25:59;4.43;;;1.10;;
49416;SDS011;35290;39.550;8.786;2022-08-25T17:28:25;3.55;;;1.00;;